createdAt,value
2019-05-11T00:00:46.656Z,87.43
2019-05-11T00:03:35.800Z,87.68
2019-05-11T00:06:23.760Z,86.47
2019-05-11T00:09:09.728Z,86.59
2019-05-11T00:11:58.832Z,87.00
2019-05-11T00:14:45.472Z,85.80
2019-05-11T00:17:31.659Z,84.85
2019-05-11T00:20:17.797Z,84.60
2019-05-11T00:23:05.457Z,84.92
2019-05-11T00:25:51.697Z,85.24
2019-05-11T00:28:38.010Z,85.08
2019-05-11T00:31:24.235Z,84.82
2019-05-11T00:34:12.121Z,85.57
2019-05-11T00:36:58.367Z,85.19
2019-05-11T00:39:48.406Z,84.83
2019-05-11T00:42:36.641Z,84.96
2019-05-11T00:45:22.974Z,85.44
2019-05-11T00:48:09.283Z,86.27
2019-05-11T00:50:59.914Z,86.45
2019-05-11T00:53:47.271Z,86.37
2019-05-11T00:56:33.222Z,86.55
2019-05-11T00:59:21.854Z,86.55
2019-05-11T01:02:07.647Z,86.27
2019-05-11T01:04:53.731Z,86.76
2019-05-11T01:07:39.817Z,86.75
2019-05-11T01:10:41.050Z,87.33
2019-05-11T01:13:16.038Z,87.22
2019-05-11T01:16:02.396Z,86.75
2019-05-11T01:19:00.227Z,86.93
2019-05-11T01:21:46.506Z,87.21
2019-05-11T01:24:32.907Z,87.10
2019-05-11T01:27:18.851Z,87.66
2019-05-11T01:30:05.571Z,87.46
2019-05-11T01:32:51.832Z,87.64
2019-05-11T01:35:37.907Z,87.69
2019-05-11T01:38:27.503Z,87.68
2019-05-11T01:41:13.681Z,87.44
2019-05-11T01:43:59.796Z,87.21
2019-05-11T01:46:45.936Z,87.11
2019-05-11T01:49:32.426Z,87.08
2019-05-11T01:52:22.141Z,87.09
2019-05-11T01:55:08.032Z,87.01
2019-05-11T01:57:56.587Z,87.00
2019-05-11T02:00:43.053Z,86.91
2019-05-11T02:03:29.148Z,86.77
2019-05-11T02:06:16.917Z,86.93
2019-05-11T02:09:04.626Z,86.81
2019-05-11T02:11:50.501Z,87.19
2019-05-11T02:14:38.788Z,87.01
2019-05-11T02:17:24.951Z,86.91
2019-05-11T02:20:14.101Z,87.07
2019-05-11T02:23:00.119Z,87.10
2019-05-11T02:25:46.311Z,86.98
2019-05-11T02:28:32.332Z,86.94
2019-05-11T02:31:18.630Z,87.22
2019-05-11T02:34:04.806Z,87.56
2019-05-11T02:36:50.816Z,87.85
2019-05-11T02:39:36.996Z,88.16
2019-05-11T02:42:23.253Z,88.19
2019-05-11T02:45:10.153Z,88.23
2019-05-11T02:47:57.832Z,87.90
2019-05-11T02:50:44.633Z,88.06
2019-05-11T02:53:31.505Z,88.11
2019-05-11T02:56:20.685Z,88.08
2019-05-11T02:59:06.718Z,88.05
2019-05-11T03:01:52.765Z,88.21
2019-05-11T03:04:38.867Z,88.27
2019-05-11T03:07:27.672Z,88.23
2019-05-11T03:10:13.922Z,88.61
2019-05-11T03:12:59.976Z,88.51
2019-05-11T03:15:46.048Z,88.32
2019-05-11T03:18:32.118Z,88.76
2019-05-11T03:21:18.248Z,89.01
2019-05-11T03:24:04.418Z,88.53
2019-05-11T03:26:50.487Z,88.12
2019-05-11T03:29:36.683Z,88.23
2019-05-11T03:32:22.854Z,88.12
2019-05-11T03:35:08.997Z,87.82
2019-05-11T03:37:54.954Z,87.95
2019-05-11T03:40:41.193Z,88.69
2019-05-11T03:43:27.231Z,89.14
2019-05-11T03:46:13.511Z,89.14
2019-05-11T03:48:59.444Z,88.94
2019-05-11T03:51:45.576Z,89.14
2019-05-11T03:54:31.911Z,89.18
2019-05-11T03:57:18.004Z,89.08
2019-05-11T04:00:04.784Z,88.98
2019-05-11T04:02:51.085Z,88.90
2019-05-11T04:05:37.299Z,88.80
2019-05-11T04:08:23.418Z,88.40
2019-05-11T04:11:09.737Z,88.93
2019-05-11T04:13:55.762Z,89.45
2019-05-11T04:16:42.268Z,89.58
2019-05-11T04:19:28.146Z,89.58
2019-05-11T04:22:14.268Z,89.57
2019-05-11T04:25:00.503Z,89.37
2019-05-11T04:27:46.589Z,89.06
2019-05-11T04:30:32.797Z,88.92
2019-05-11T04:33:19.133Z,88.75
2019-05-11T04:36:05.247Z,88.61
2019-05-11T04:38:51.318Z,88.43
2019-05-11T04:41:37.738Z,88.25
2019-05-11T04:44:23.832Z,88.01
2019-05-11T04:47:10.164Z,87.99
2019-05-11T04:49:56.331Z,88.05
2019-05-11T04:52:42.431Z,87.79
2019-05-11T04:55:28.777Z,87.59
2019-05-11T04:58:14.837Z,87.64
2019-05-11T05:01:01.254Z,87.62
2019-05-11T05:03:54.291Z,87.56
2019-05-11T05:06:38.811Z,87.53
2019-05-11T05:09:23.825Z,87.45
2019-05-11T05:12:14.087Z,87.41
2019-05-11T05:14:58.216Z,87.37
2019-05-11T05:17:44.296Z,87.17
2019-05-11T05:20:30.482Z,87.12
2019-05-11T05:23:16.696Z,87.07
2019-05-11T05:26:02.850Z,86.54
2019-05-11T05:28:49.027Z,86.69
2019-05-11T05:31:35.917Z,86.55
2019-05-11T05:34:21.756Z,86.57
2019-05-11T05:37:08.206Z,86.33
2019-05-11T05:39:54.161Z,86.11
2019-05-11T05:42:40.296Z,86.35
2019-05-11T05:45:26.566Z,85.83
2019-05-11T05:48:12.708Z,85.59
2019-05-11T05:50:58.807Z,85.18
2019-05-11T05:53:45.083Z,85.31
2019-05-11T05:56:31.080Z,85.47
2019-05-11T05:59:17.272Z,84.97
2019-05-11T06:02:03.460Z,84.76
2019-05-11T06:04:49.587Z,84.55
2019-05-11T06:07:38.751Z,84.04
2019-05-11T06:10:25.156Z,83.90
2019-05-11T06:13:14.283Z,83.57
2019-05-11T06:16:00.789Z,83.64
2019-05-11T06:18:47.037Z,84.07
2019-05-11T06:21:36.888Z,83.68
2019-05-11T06:24:23.176Z,82.90
2019-05-11T06:27:12.540Z,82.37
2019-05-11T06:29:58.732Z,82.45
2019-05-11T06:32:44.790Z,82.50
2019-05-11T06:35:30.943Z,82.58
2019-05-11T06:38:17.002Z,82.62
2019-05-11T06:41:09.106Z,82.95
2019-05-11T06:44:01.310Z,83.40
2019-05-11T06:46:39.702Z,83.07
2019-05-11T06:49:25.742Z,82.89
2019-05-11T06:52:12.023Z,82.88
2019-05-11T06:54:58.166Z,82.49
2019-05-11T06:57:44.179Z,82.65
2019-05-11T07:00:30.350Z,82.19
2019-05-11T07:03:16.609Z,82.49
2019-05-11T07:06:02.678Z,82.14
2019-05-11T07:08:50.144Z,81.40
2019-05-11T07:11:36.556Z,82.23
2019-05-11T07:14:22.616Z,82.41
2019-05-11T07:17:11.762Z,82.08
2019-05-11T07:19:58.132Z,81.83
2019-05-11T07:22:45.872Z,81.33
2019-05-11T07:25:32.101Z,81.54
2019-05-11T07:28:18.347Z,80.78
2019-05-11T07:31:06.518Z,80.61
2019-05-11T07:33:52.601Z,80.84
2019-05-11T07:36:38.961Z,80.12
2019-05-11T07:39:27.928Z,79.95
2019-05-11T07:42:14.196Z,80.03
2019-05-11T07:45:00.311Z,80.28
2019-05-11T07:47:48.548Z,80.37
2019-05-11T07:50:34.577Z,80.92
2019-05-11T07:53:20.851Z,82.16
2019-05-11T07:56:08.304Z,81.88
2019-05-11T07:58:54.501Z,82.74
2019-05-11T08:01:40.632Z,82.69
2019-05-11T08:04:28.814Z,82.66
2019-05-11T08:07:14.966Z,82.49
2019-05-11T08:10:01.207Z,82.33
2019-05-11T08:12:48.055Z,82.18
2019-05-11T08:15:34.414Z,82.61
2019-05-11T08:18:20.687Z,81.86
2019-05-11T08:21:08.861Z,82.08
2019-05-11T08:23:54.861Z,82.21
2019-05-11T08:26:41.135Z,81.54
2019-05-11T08:29:27.991Z,80.55
2019-05-11T08:32:14.315Z,80.05
2019-05-11T08:35:00.500Z,79.89
2019-05-11T08:37:47.879Z,79.52
2019-05-11T08:40:34.137Z,79.07
2019-05-11T08:43:20.418Z,78.76
2019-05-11T08:46:07.985Z,78.47
2019-05-11T08:48:54.071Z,79.41
2019-05-11T08:51:40.184Z,78.83
2019-05-11T08:54:28.676Z,79.41
2019-05-11T08:57:14.365Z,78.95
2019-05-11T09:00:00.699Z,78.92
2019-05-11T09:02:50.412Z,79.17
2019-05-11T09:05:34.873Z,79.12
2019-05-11T09:08:21.094Z,78.53
2019-05-11T09:11:08.394Z,78.20
2019-05-11T09:13:54.882Z,78.59
2019-05-11T09:16:41.061Z,77.93
2019-05-11T09:19:28.525Z,78.25
2019-05-11T09:22:14.896Z,78.76
2019-05-11T09:25:01.211Z,78.44
2019-05-11T09:27:48.224Z,78.46
2019-05-11T09:30:34.536Z,77.80
2019-05-11T09:33:20.933Z,77.59
2019-05-11T09:36:08.599Z,77.80
2019-05-11T09:38:54.968Z,77.37
2019-05-11T09:41:41.161Z,77.57
2019-05-11T09:44:28.826Z,77.66
2019-05-11T09:47:14.936Z,77.46
2019-05-11T09:50:01.677Z,78.37
2019-05-11T09:52:49.037Z,77.95
2019-05-11T09:55:35.437Z,78.09
2019-05-11T09:58:21.580Z,77.10
2019-05-11T10:01:08.864Z,76.31
2019-05-11T10:03:55.262Z,77.25
2019-05-11T10:06:41.276Z,77.15
2019-05-11T10:09:28.170Z,77.29
2019-05-11T10:12:14.557Z,77.75
2019-05-11T10:15:00.692Z,78.09
2019-05-11T10:17:48.319Z,77.86
2019-05-11T10:20:34.412Z,77.71
2019-05-11T10:23:20.542Z,77.45
2019-05-11T10:26:08.000Z,76.79
2019-05-11T10:28:54.332Z,77.13
2019-05-11T10:31:40.396Z,77.02
2019-05-11T10:34:28.473Z,77.02
2019-05-11T10:37:14.792Z,76.27
2019-05-11T10:40:01.067Z,77.19
2019-05-11T10:42:48.338Z,76.38
2019-05-11T10:45:35.053Z,76.04
2019-05-11T10:48:21.176Z,75.00
2019-05-11T10:51:08.219Z,75.50
2019-05-11T10:53:54.456Z,75.31
2019-05-11T10:56:40.576Z,74.20
2019-05-11T10:59:28.319Z,72.96
2019-05-11T11:02:14.722Z,74.09
2019-05-11T11:05:00.901Z,73.30
2019-05-11T11:07:48.459Z,74.94
2019-05-11T11:10:34.836Z,73.20
2019-05-11T11:13:20.936Z,74.06
2019-05-11T11:16:08.335Z,75.01
2019-05-11T11:18:55.702Z,75.05
2019-05-11T11:21:41.697Z,74.65
2019-05-11T11:24:28.704Z,74.45
2019-05-11T11:27:15.051Z,73.75
2019-05-11T11:30:01.235Z,74.18
2019-05-11T11:32:48.257Z,75.36
2019-05-11T11:35:34.659Z,75.48
2019-05-11T11:38:20.979Z,74.80
2019-05-11T11:41:07.750Z,73.83
2019-05-11T11:43:53.746Z,73.86
2019-05-11T11:46:51.330Z,73.89
2019-05-11T11:49:28.515Z,73.44
2019-05-11T11:52:14.916Z,73.14
2019-05-11T11:55:01.037Z,72.63
2019-05-11T11:57:48.647Z,74.01
2019-05-11T12:00:35.752Z,72.85
2019-05-11T12:03:21.832Z,74.42
2019-05-11T12:06:08.691Z,73.37
2019-05-11T12:08:55.227Z,72.34
2019-05-11T12:11:41.347Z,73.08
2019-05-11T12:14:28.176Z,73.54
2019-05-11T12:17:14.622Z,72.17
2019-05-11T12:20:00.775Z,72.09
2019-05-11T12:22:47.636Z,72.83
2019-05-11T12:25:33.793Z,72.86
2019-05-11T12:28:20.002Z,72.26
2019-05-11T12:31:08.540Z,72.30
2019-05-11T12:33:54.331Z,69.81
2019-05-11T12:36:40.566Z,70.74
2019-05-11T12:39:28.200Z,70.12
2019-05-11T12:42:14.500Z,70.46
2019-05-11T12:45:00.706Z,70.87
2019-05-11T12:47:48.017Z,69.48
2019-05-11T12:50:34.353Z,70.01
2019-05-11T12:53:20.628Z,71.04
2019-05-11T12:56:08.260Z,71.03
2019-05-11T12:58:54.445Z,70.67
2019-05-11T13:01:40.563Z,72.05
2019-05-11T13:04:28.269Z,69.86
2019-05-11T13:07:16.695Z,70.75
2019-05-11T13:10:02.591Z,71.34
2019-05-11T13:12:49.508Z,71.21
2019-05-11T13:15:35.821Z,69.90
2019-05-11T13:18:21.960Z,69.96
2019-05-11T13:21:08.575Z,69.84
2019-05-11T13:23:54.645Z,70.12
2019-05-11T13:26:40.856Z,69.34
2019-05-11T13:29:28.660Z,69.37
2019-05-11T13:32:15.396Z,69.67
2019-05-11T13:35:01.529Z,69.14
2019-05-11T13:37:48.135Z,68.88
2019-05-11T13:40:34.511Z,69.49
2019-05-11T13:43:20.630Z,69.21
2019-05-11T13:46:08.725Z,70.34
2019-05-11T13:48:54.871Z,68.99
2019-05-11T13:51:40.994Z,67.98
2019-05-11T13:54:27.179Z,67.99
2019-05-11T13:57:13.296Z,68.96
2019-05-11T13:59:59.450Z,69.36
2019-05-11T14:02:45.665Z,68.57
2019-05-11T14:05:31.806Z,67.86
2019-05-11T14:08:18.549Z,68.91
2019-05-11T14:11:05.190Z,66.98
2019-05-11T14:13:51.311Z,66.49
2019-05-11T14:16:38.036Z,65.80
2019-05-11T14:19:24.241Z,66.13
2019-05-11T14:22:10.298Z,64.33
2019-05-11T14:24:58.631Z,65.85
2019-05-11T14:27:44.685Z,66.27
2019-05-11T14:30:30.912Z,66.58
2019-05-11T14:33:18.117Z,65.82
2019-05-11T14:36:04.646Z,67.08
2019-05-11T14:38:50.830Z,65.93
2019-05-11T14:41:37.998Z,66.18
2019-05-11T14:44:24.870Z,65.65
2019-05-11T14:47:10.991Z,65.79
2019-05-11T14:49:57.849Z,65.45
2019-05-11T14:52:44.153Z,66.67
2019-05-11T14:55:31.968Z,64.93
2019-05-11T14:58:19.869Z,65.40
2019-05-11T15:01:08.647Z,65.69
2019-05-11T15:03:54.361Z,65.08
2019-05-11T15:06:40.535Z,66.54
2019-05-11T15:09:28.565Z,65.56
2019-05-11T15:12:15.031Z,66.62
2019-05-11T15:15:01.165Z,67.00
2019-05-11T15:17:49.162Z,67.53
2019-05-11T15:20:35.691Z,67.18
2019-05-11T15:23:21.920Z,66.00
2019-05-11T15:26:10.111Z,65.99
2019-05-11T15:28:58.384Z,64.82
2019-05-11T15:31:44.340Z,64.19
2019-05-11T15:34:30.538Z,63.59
2019-05-11T15:37:17.822Z,63.77
2019-05-11T15:40:18.785Z,64.47
2019-05-11T15:43:05.292Z,61.48
2019-05-11T15:45:51.341Z,61.89
2019-05-11T15:48:53.375Z,61.09
2019-05-11T15:51:25.715Z,60.55
2019-05-11T15:54:11.937Z,60.34
2019-05-11T15:56:59.987Z,60.02
2019-05-11T15:59:48.159Z,60.60
2019-05-11T16:02:34.383Z,60.39
2019-05-11T16:05:20.429Z,59.57
2019-05-11T16:08:08.376Z,59.61
2019-05-11T16:10:54.828Z,59.12
2019-05-11T16:13:41.005Z,59.45
2019-05-11T16:16:28.079Z,59.41
2019-05-11T16:19:15.415Z,60.59
2019-05-11T16:22:01.810Z,60.28
2019-05-11T16:24:48.522Z,58.79
2019-05-11T16:27:34.850Z,58.48
2019-05-11T16:30:21.799Z,58.34
2019-05-11T16:33:08.839Z,58.90
2019-05-11T16:35:58.023Z,57.17
2019-05-11T16:38:43.440Z,56.93
2019-05-11T16:41:29.500Z,56.30
2019-05-11T16:44:18.280Z,55.02
2019-05-11T16:47:03.796Z,55.14
2019-05-11T16:49:50.015Z,55.31
2019-05-11T16:52:38.474Z,54.98
2019-05-11T16:55:24.441Z,55.32
2019-05-11T16:58:10.321Z,54.77
2019-05-11T17:00:58.276Z,54.02
2019-05-11T17:03:44.495Z,55.17
2019-05-11T17:06:31.813Z,54.94
2019-05-11T17:09:19.705Z,55.46
2019-05-11T17:12:08.399Z,54.19
2019-05-11T17:14:58.421Z,54.52
2019-05-11T17:17:45.035Z,55.61
2019-05-11T17:20:31.233Z,55.14
2019-05-11T17:23:18.314Z,55.31
2019-05-11T17:26:04.761Z,54.38
2019-05-11T17:28:50.882Z,53.91
2019-05-11T17:31:38.020Z,54.36
2019-05-11T17:34:24.455Z,54.47
2019-05-11T17:37:10.569Z,54.40
2019-05-11T17:39:58.650Z,54.12
2019-05-11T17:42:44.980Z,54.11
2019-05-11T17:45:31.166Z,54.00
2019-05-11T17:48:17.941Z,54.22
2019-05-11T17:51:16.763Z,54.52
2019-05-11T17:53:52.184Z,54.77
2019-05-11T17:56:38.994Z,54.22
2019-05-11T17:59:25.055Z,54.01
2019-05-11T18:02:11.244Z,54.79
2019-05-11T18:04:58.449Z,54.93
2019-05-11T18:07:44.641Z,55.86
2019-05-11T18:10:30.895Z,56.54
2019-05-11T18:13:22.776Z,57.32
2019-05-11T18:16:09.458Z,57.51
2019-05-11T18:18:55.679Z,57.80
2019-05-11T18:21:44.489Z,58.90
2019-05-11T18:24:30.623Z,59.33
2019-05-11T18:27:18.522Z,60.04
2019-05-11T18:30:04.924Z,60.15
2019-05-11T18:32:50.999Z,60.07
2019-05-11T18:35:37.062Z,60.55
2019-05-11T18:38:23.194Z,60.97
2019-05-11T18:41:09.539Z,61.33
2019-05-11T18:43:55.685Z,61.70
2019-05-11T18:46:42.034Z,61.79
2019-05-11T18:49:28.625Z,62.01
2019-05-11T18:52:14.747Z,62.47
2019-05-11T18:55:00.810Z,62.78
2019-05-11T18:57:49.146Z,63.06
2019-05-11T19:00:35.103Z,63.39
2019-05-11T19:03:21.649Z,63.60
2019-05-11T19:06:08.839Z,63.69
2019-05-11T19:08:55.059Z,63.80
2019-05-11T19:11:42.829Z,63.85
2019-05-11T19:14:29.571Z,64.40
2019-05-11T19:17:18.009Z,64.22
2019-05-11T19:20:04.299Z,64.88
2019-05-11T19:22:50.533Z,64.91
2019-05-11T19:25:37.561Z,65.47
2019-05-11T19:28:23.574Z,65.77
2019-05-11T19:31:11.297Z,65.67
2019-05-11T19:33:58.145Z,65.77
2019-05-11T19:36:44.614Z,65.75
2019-05-11T19:39:30.783Z,66.13
2019-05-11T19:42:17.854Z,65.94
2019-05-11T19:45:04.364Z,66.27
2019-05-11T19:47:50.500Z,66.30
2019-05-11T19:50:40.331Z,66.39
2019-05-11T19:53:24.820Z,66.75
2019-05-11T19:56:11.085Z,66.69
2019-05-11T19:58:57.935Z,66.77
2019-05-11T20:01:44.464Z,67.29
2019-05-11T20:04:30.630Z,66.98
2019-05-11T20:07:18.329Z,67.27
2019-05-11T20:10:04.879Z,67.42
2019-05-11T20:12:50.966Z,66.64
2019-05-11T20:15:38.120Z,66.47
2019-05-11T20:18:24.760Z,66.75
2019-05-11T20:21:19.296Z,66.68
2019-05-11T20:23:59.105Z,66.85
2019-05-11T20:26:45.519Z,66.73
2019-05-11T20:29:31.920Z,66.86
2019-05-11T20:32:18.706Z,67.42
2019-05-11T20:35:04.761Z,67.21
2019-05-11T20:37:50.963Z,67.34
2019-05-11T20:40:37.815Z,67.72
2019-05-11T20:43:24.309Z,67.68
2019-05-11T20:46:10.358Z,68.04
2019-05-11T20:48:57.959Z,68.24
2019-05-11T20:51:44.129Z,68.36
2019-05-11T20:54:30.454Z,68.54
2019-05-11T20:57:17.966Z,68.71
2019-05-11T21:00:04.713Z,69.27
2019-05-11T21:02:50.735Z,69.25
2019-05-11T21:05:36.710Z,69.65
2019-05-11T21:08:22.876Z,69.88
2019-05-11T21:11:08.998Z,70.16
2019-05-11T21:13:55.196Z,70.30
2019-05-11T21:16:41.364Z,70.76
2019-05-11T21:19:28.460Z,70.57
2019-05-11T21:22:14.632Z,71.07
2019-05-11T21:25:00.682Z,71.28
2019-05-11T21:27:48.653Z,71.40
2019-05-11T21:30:35.161Z,71.62
2019-05-11T21:33:21.291Z,71.77
2019-05-11T21:36:08.812Z,72.23
2019-05-11T21:38:55.174Z,72.48
2019-05-11T21:41:41.343Z,73.12
2019-05-11T21:44:27.899Z,72.91
2019-05-11T21:47:14.080Z,73.22
2019-05-11T21:50:00.238Z,73.44
2019-05-11T21:52:48.439Z,73.85
2019-05-11T21:55:34.640Z,73.93
2019-05-11T21:58:20.750Z,74.15
2019-05-11T22:01:07.037Z,74.33
2019-05-11T22:03:53.930Z,74.31
2019-05-11T22:06:40.035Z,74.58
2019-05-11T22:09:27.795Z,74.51
2019-05-11T22:12:13.848Z,74.80
2019-05-11T22:15:00.166Z,75.24
2019-05-11T22:17:48.060Z,75.71
2019-05-11T22:20:34.457Z,75.74
2019-05-11T22:23:20.607Z,75.87
2019-05-11T22:26:07.749Z,76.00
2019-05-11T22:28:53.960Z,76.25
2019-05-11T22:31:42.106Z,76.33
2019-05-11T22:34:28.552Z,76.52
2019-05-11T22:37:14.505Z,76.46
2019-05-11T22:40:00.636Z,76.83
2019-05-11T22:42:47.142Z,77.04
2019-05-11T22:45:33.200Z,77.06
2019-05-11T22:48:19.340Z,77.15
2019-05-11T22:51:07.841Z,77.41
2019-05-11T22:53:53.734Z,78.12
2019-05-11T22:56:39.810Z,77.84
2019-05-11T22:59:28.109Z,77.92
2019-05-11T23:02:14.260Z,77.93
2019-05-11T23:05:00.475Z,77.81
2019-05-11T23:07:48.132Z,77.63
2019-05-11T23:10:34.375Z,77.61
2019-05-11T23:13:20.291Z,77.92
2019-05-11T23:16:08.535Z,78.18
2019-05-11T23:18:54.765Z,78.05
2019-05-11T23:21:40.812Z,78.08
2019-05-11T23:24:28.709Z,77.83
2019-05-11T23:27:15.130Z,77.88
2019-05-11T23:30:01.237Z,77.85
2019-05-11T23:32:48.571Z,78.22
2019-05-11T23:35:35.090Z,78.16
2019-05-11T23:38:21.160Z,78.10
2019-05-11T23:41:22.625Z,78.15
2019-05-11T23:43:58.367Z,78.02
2019-05-11T23:46:44.721Z,77.82
2019-05-11T23:49:30.920Z,78.09
2019-05-11T23:52:18.072Z,77.99
2019-05-11T23:55:04.400Z,78.16
2019-05-11T23:57:50.360Z,78.29
